createdAt,value
2022-11-20T00:00:47.609Z,51.78
2022-11-20T00:03:36.930Z,49.67
2022-11-20T00:06:27.301Z,58.07
2022-11-20T00:09:16.246Z,53.13
2022-11-20T00:12:06.883Z,56.87
2022-11-20T00:14:57.964Z,51.40
2022-11-20T00:17:47.396Z,48.80
2022-11-20T00:20:36.764Z,48.17
2022-11-20T00:23:26.242Z,53.10
2022-11-20T00:26:17.596Z,45.60
2022-11-20T00:29:06.688Z,51.50
2022-11-20T00:31:57.350Z,53.63
2022-11-20T00:34:47.177Z,49.30
2022-11-20T00:37:36.437Z,45.87
2022-11-20T00:40:26.059Z,46.63
2022-11-20T00:43:16.659Z,46.37
2022-11-20T00:46:08.034Z,48.80
2022-11-20T00:48:58.062Z,45.27
2022-11-20T00:51:47.105Z,43.33
2022-11-20T00:54:36.615Z,44.00
2022-11-20T00:57:25.651Z,41.37
2022-11-20T01:00:15.326Z,40.67
2022-11-20T01:03:04.315Z,43.30
2022-11-20T01:05:55.154Z,43.20
2022-11-20T01:08:45.155Z,45.87
2022-11-20T01:11:35.633Z,44.47
2022-11-20T01:14:24.657Z,43.77
2022-11-20T01:17:14.937Z,40.20
2022-11-20T01:20:04.438Z,43.03
2022-11-20T01:22:54.986Z,41.10
2022-11-20T01:25:44.131Z,41.53
2022-11-20T01:28:33.426Z,43.40
2022-11-20T01:31:25.339Z,43.33
2022-11-20T01:34:15.641Z,39.07
2022-11-20T01:37:04.411Z,41.00
2022-11-20T01:39:55.696Z,39.97
2022-11-20T01:43:07.408Z,39.87
2022-11-20T01:46:21.877Z,39.97
2022-11-20T01:49:17.829Z,37.17
2022-11-20T01:52:10.389Z,45.70
2022-11-20T01:55:06.063Z,35.13
2022-11-20T01:57:55.588Z,38.23
2022-11-20T02:00:45.699Z,44.27
2022-11-20T02:03:35.814Z,38.13
2022-11-20T02:06:27.937Z,41.20
2022-11-20T02:09:17.295Z,40.80
2022-11-20T02:12:29.178Z,39.83
2022-11-20T02:15:17.348Z,37.27
2022-11-20T02:18:08.106Z,35.03
2022-11-20T02:21:01.504Z,34.23
2022-11-20T02:24:06.104Z,32.07
2022-11-20T02:26:57.137Z,33.10
2022-11-20T02:29:52.069Z,31.80
2022-11-20T02:32:41.979Z,32.73
2022-11-20T02:35:46.434Z,31.83
2022-11-20T02:38:35.599Z,31.20
2022-11-20T02:41:33.637Z,32.87
2022-11-20T02:44:22.638Z,30.40
2022-11-20T02:47:12.037Z,31.27
2022-11-20T02:50:01.273Z,34.20
2022-11-20T02:52:50.429Z,29.13
2022-11-20T02:55:39.697Z,31.63
2022-11-20T02:58:30.411Z,27.80
2022-11-20T03:01:19.170Z,30.53
2022-11-20T03:04:08.906Z,29.10
2022-11-20T03:06:58.372Z,27.00
2022-11-20T03:09:47.666Z,29.67
2022-11-20T03:12:36.783Z,26.47
2022-11-20T03:15:26.895Z,32.77
2022-11-20T03:18:15.845Z,27.10
2022-11-20T03:21:05.022Z,31.67
2022-11-20T03:23:55.431Z,28.77
2022-11-20T03:26:44.641Z,26.33
2022-11-20T03:29:33.446Z,29.57
2022-11-20T03:32:23.695Z,29.90
2022-11-20T03:35:12.486Z,25.20
2022-11-20T03:38:01.918Z,28.50
2022-11-20T03:40:51.041Z,25.37
2022-11-20T03:43:42.637Z,28.70
2022-11-20T03:46:31.818Z,24.63
2022-11-20T03:49:23.309Z,27.20
2022-11-20T03:52:12.585Z,23.33
2022-11-20T03:55:02.194Z,25.97
2022-11-20T03:57:51.037Z,28.17
2022-11-20T04:00:39.805Z,28.07
2022-11-20T04:03:28.921Z,24.43
2022-11-20T04:06:23.062Z,27.67
2022-11-20T04:09:11.512Z,24.10
2022-11-20T04:12:00.799Z,22.30
2022-11-20T04:14:49.895Z,25.63
2022-11-20T04:17:39.709Z,26.77
2022-11-20T04:20:29.098Z,31.73
2022-11-20T04:23:21.482Z,26.00
2022-11-20T04:26:14.786Z,25.70
2022-11-20T04:29:04.778Z,29.47
2022-11-20T04:31:54.164Z,27.33
2022-11-20T04:34:43.189Z,27.17
2022-11-20T04:37:33.128Z,25.63
2022-11-20T06:52:58.574Z,19.33
2022-11-20T06:55:49.702Z,21.83
2022-11-20T06:58:39.022Z,19.90
2022-11-20T07:01:28.573Z,22.27
2022-11-20T07:04:18.137Z,23.00
2022-11-20T07:07:07.608Z,21.63
2022-11-20T07:09:56.909Z,18.40
2022-11-20T07:12:51.974Z,20.60
2022-11-20T07:15:41.095Z,21.00
2022-11-20T07:18:29.707Z,23.27
2022-11-20T07:21:18.395Z,23.43
2022-11-20T07:24:08.158Z,21.13
2022-11-20T07:26:57.252Z,24.37
2022-11-20T07:29:47.230Z,22.37
2022-11-20T07:32:36.271Z,18.77
2022-11-20T07:35:26.020Z,20.27
2022-11-20T07:38:15.580Z,24.23
2022-11-20T07:41:05.130Z,21.70
2022-11-20T07:43:54.377Z,23.63
2022-11-20T07:46:45.489Z,23.37
2022-11-20T07:49:35.060Z,17.80
2022-11-20T07:52:24.398Z,21.37
2022-11-20T07:55:14.372Z,20.90
2022-11-20T07:58:03.185Z,30.30
2022-11-20T08:00:52.980Z,31.30
2022-11-20T08:03:43.961Z,29.37
2022-11-20T08:06:32.965Z,27.43
2022-11-20T08:09:22.627Z,28.30
2022-11-20T08:12:36.329Z,32.67
2022-11-20T08:15:25.784Z,44.37
2022-11-20T08:18:30.792Z,51.93
2022-11-20T08:21:22.416Z,50.97
2022-11-20T08:24:12.303Z,54.67
2022-11-20T08:27:01.520Z,53.07
2022-11-20T08:29:51.256Z,55.30
2022-11-20T08:32:40.428Z,55.07
2022-11-20T08:35:29.504Z,69.00
2022-11-20T08:38:20.167Z,67.63
2022-11-20T08:41:22.498Z,64.10
2022-11-20T08:44:11.753Z,57.27
2022-11-20T08:47:01.092Z,55.47
2022-11-20T08:49:49.737Z,56.33
2022-11-20T08:52:39.965Z,50.40
2022-11-20T08:55:29.970Z,49.47
2022-11-20T08:58:18.468Z,49.33
2022-11-20T09:01:07.398Z,54.57
2022-11-20T09:03:57.838Z,52.57
2022-11-20T09:06:46.943Z,55.23
2022-11-20T09:09:36.099Z,48.73
2022-11-20T09:12:26.754Z,43.83
2022-11-20T09:15:16.460Z,47.77
2022-11-20T09:18:07.645Z,45.20
2022-11-20T09:20:59.683Z,46.90
2022-11-20T09:23:48.601Z,49.83
2022-11-20T09:26:37.377Z,40.73
2022-11-20T09:29:27.984Z,40.77
2022-11-20T09:32:16.796Z,39.20
2022-11-20T09:35:06.719Z,41.17
2022-11-20T09:37:56.798Z,40.90
2022-11-20T09:40:48.868Z,43.93
2022-11-20T09:43:48.770Z,40.80
2022-11-20T09:46:43.888Z,34.03
2022-11-20T09:49:37.033Z,36.22
2022-11-20T09:52:32.198Z,34.10
2022-11-20T09:55:22.611Z,35.70
2022-11-20T09:58:19.279Z,37.30
2022-11-20T10:01:13.346Z,32.17
2022-11-20T10:04:06.442Z,31.88
2022-11-20T10:07:30.147Z,37.53
2022-11-20T10:10:07.342Z,36.15
2022-11-20T10:13:03.471Z,39.95
2022-11-20T10:15:59.199Z,41.75
2022-11-20T10:19:01.511Z,43.05
2022-11-20T10:22:03.746Z,38.88
2022-11-20T10:24:59.662Z,42.22
2022-11-20T10:28:07.366Z,45.40
2022-11-20T10:31:02.488Z,42.50
2022-11-20T10:34:11.642Z,46.40
2022-11-20T10:37:08.664Z,44.20
2022-11-20T10:40:04.367Z,44.03
2022-11-20T10:42:57.640Z,42.15
2022-11-20T10:45:53.767Z,41.67
2022-11-20T10:48:45.877Z,42.67
2022-11-20T10:51:40.243Z,46.53
2022-11-20T10:54:39.138Z,47.80
2022-11-20T10:57:35.071Z,49.80
2022-11-20T11:00:24.870Z,45.80
2022-11-20T11:03:24.678Z,45.33
2022-11-20T11:06:23.587Z,45.92
2022-11-20T11:09:18.072Z,43.13
2022-11-20T11:12:11.894Z,46.00
2022-11-20T11:15:01.132Z,43.88
2022-11-20T11:17:50.667Z,42.45
2022-11-20T11:20:40.646Z,39.75
2022-11-20T11:23:35.749Z,44.08
2022-11-20T11:26:26.470Z,45.47
2022-11-20T11:29:21.552Z,42.03
2022-11-20T11:32:15.085Z,44.60
2022-11-20T11:35:04.902Z,44.03
2022-11-20T11:37:57.000Z,47.63
2022-11-20T11:40:46.689Z,47.03
2022-11-20T11:44:08.226Z,41.20
2022-11-20T11:46:59.654Z,41.45
2022-11-20T11:49:48.718Z,41.88
2022-11-20T11:52:46.908Z,42.38
2022-11-20T11:55:38.518Z,40.50
2022-11-20T11:58:42.279Z,44.50
2022-11-20T12:01:34.473Z,38.33
2022-11-20T12:04:31.840Z,43.78
2022-11-20T12:07:45.653Z,43.00
2022-11-20T12:10:41.214Z,42.15
2022-11-20T12:13:35.889Z,43.40
2022-11-20T12:16:25.404Z,42.70
2022-11-20T12:19:15.645Z,45.53
2022-11-20T12:22:11.195Z,41.53
2022-11-20T12:25:02.631Z,47.22
2022-11-20T12:28:09.500Z,37.78
2022-11-20T12:31:16.815Z,46.28
2022-11-20T12:34:13.252Z,48.25
2022-11-20T12:37:05.500Z,55.50
2022-11-20T12:39:58.959Z,43.42
2022-11-20T12:43:10.525Z,44.10
2022-11-20T12:46:15.955Z,41.47
2022-11-20T12:49:12.098Z,41.78
2022-11-20T12:52:06.531Z,46.60
2022-11-20T12:55:06.276Z,51.55
2022-11-20T12:57:58.589Z,52.08
2022-11-20T13:00:56.128Z,42.17
2022-11-20T13:03:47.716Z,43.92
2022-11-20T13:06:37.055Z,38.63
2022-11-20T13:09:27.345Z,41.65
2022-11-20T13:12:21.017Z,42.30
2022-11-20T13:15:14.838Z,43.67
2022-11-20T13:18:04.464Z,46.67
2022-11-20T13:20:54.025Z,40.92
2022-11-20T13:23:42.893Z,43.47
2022-11-20T13:26:31.756Z,37.85
2022-11-20T13:29:23.108Z,37.97
2022-11-20T13:32:17.114Z,36.67
2022-11-20T13:35:07.235Z,39.33
2022-11-20T13:38:03.220Z,38.40
2022-11-20T13:40:54.807Z,41.03
2022-11-20T13:43:45.465Z,38.60
2022-11-20T13:46:45.758Z,38.17
2022-11-20T13:49:38.948Z,37.00
2022-11-20T13:52:38.513Z,42.95
2022-11-20T13:55:33.209Z,43.45
2022-11-20T13:58:30.035Z,44.08
2022-11-20T14:01:20.545Z,47.53
2022-11-20T14:04:12.381Z,41.58
2022-11-20T14:07:02.272Z,40.83
2022-11-20T14:09:54.896Z,53.88
2022-11-20T14:12:44.327Z,50.63
2022-11-20T14:15:34.756Z,44.72
2022-11-20T14:18:24.462Z,42.53
2022-11-20T14:21:24.549Z,49.63
2022-11-20T14:24:15.207Z,48.88
2022-11-20T14:27:05.375Z,48.85
2022-11-20T14:29:55.485Z,49.20
2022-11-20T14:32:45.622Z,46.13
2022-11-20T14:35:38.193Z,47.63
2022-11-20T14:38:30.105Z,49.33
2022-11-20T14:41:20.268Z,51.42
2022-11-20T14:44:11.991Z,47.33
2022-11-20T14:47:01.405Z,46.83
2022-11-20T14:49:51.350Z,48.03
2022-11-20T14:52:41.206Z,46.83
2022-11-20T14:55:32.736Z,46.25
2022-11-20T14:58:23.893Z,47.85
2022-11-20T15:01:16.476Z,50.83
2022-11-20T15:04:08.688Z,46.90
2022-11-20T15:06:59.634Z,44.53
2022-11-20T15:09:49.190Z,50.53
2022-11-20T15:12:41.564Z,50.70
2022-11-20T15:15:35.472Z,55.90
2022-11-20T15:18:25.569Z,52.30
2022-11-20T15:21:16.711Z,50.83
2022-11-20T15:24:06.156Z,47.05
2022-11-20T15:26:55.429Z,53.88
2022-11-20T15:29:46.695Z,55.53
2022-11-20T15:32:35.963Z,52.13
2022-11-20T15:35:25.335Z,49.90
2022-11-20T15:38:14.374Z,51.13
2022-11-20T15:41:03.718Z,52.20
2022-11-20T15:43:53.221Z,52.83
2022-11-20T15:46:45.620Z,54.17
2022-11-20T15:49:35.603Z,47.92
2022-11-20T15:52:25.039Z,60.85
2022-11-20T15:55:14.283Z,50.78
2022-11-20T15:58:03.322Z,57.45
2022-11-20T16:00:53.033Z,53.75
2022-11-20T16:03:44.021Z,51.53
2022-11-20T16:06:32.976Z,54.38
2022-11-20T16:09:22.470Z,56.75
2022-11-20T16:12:33.690Z,54.80
2022-11-20T16:15:40.380Z,58.58
2022-11-20T16:18:29.378Z,57.40
2022-11-20T16:21:20.030Z,54.53
2022-11-20T16:24:10.220Z,52.70
2022-11-20T16:26:59.651Z,53.13
2022-11-20T16:29:49.304Z,58.70
2022-11-20T16:32:40.248Z,51.95
2022-11-20T16:35:30.872Z,53.70
2022-11-20T16:38:21.489Z,57.50
2022-11-20T16:41:14.420Z,51.13
2022-11-20T16:44:04.537Z,59.40
2022-11-20T16:46:53.954Z,53.65
2022-11-20T16:49:43.542Z,53.33
2022-11-20T16:52:33.540Z,57.40
2022-11-20T16:55:24.268Z,57.43
2022-11-20T16:58:13.095Z,56.55
2022-11-20T17:01:07.594Z,58.63
2022-11-20T17:03:57.702Z,58.03
2022-11-20T17:06:47.975Z,55.22
2022-11-20T17:09:37.240Z,64.63
2022-11-20T17:12:27.433Z,51.80
2022-11-20T17:15:17.689Z,60.70
2022-11-20T17:18:07.831Z,56.43
2022-11-20T17:20:57.226Z,58.13
2022-11-20T17:23:47.444Z,52.78
2022-11-20T17:26:37.240Z,56.72
2022-11-20T17:29:28.035Z,58.88
2022-11-20T17:32:17.463Z,67.35
2022-11-20T17:35:06.955Z,55.53
2022-11-20T17:37:56.289Z,67.37
2022-11-20T17:40:46.595Z,57.03
2022-11-20T17:43:37.483Z,60.97
2022-11-20T17:46:28.806Z,56.10
2022-11-20T17:49:22.743Z,57.50
2022-11-20T17:52:13.358Z,62.70
2022-11-20T17:55:02.823Z,62.97
2022-11-20T17:57:54.001Z,54.67
2022-11-20T18:00:43.163Z,61.57
2022-11-20T18:03:34.572Z,64.70
2022-11-20T18:06:24.388Z,54.20
2022-11-20T18:09:13.993Z,64.90
2022-11-20T18:12:03.528Z,63.53
2022-11-20T18:14:52.694Z,66.20
2022-11-20T18:17:41.741Z,67.53
2022-11-20T18:20:38.229Z,62.37
2022-11-20T18:23:28.850Z,67.40
2022-11-20T18:26:18.147Z,59.93
2022-11-20T18:29:07.653Z,62.93
2022-11-20T18:31:57.113Z,67.53
2022-11-20T18:34:46.594Z,69.40
2022-11-20T18:37:37.660Z,62.30
2022-11-20T18:40:26.507Z,61.30
2022-11-20T18:43:47.896Z,71.33
2022-11-20T18:46:37.030Z,66.13
2022-11-20T18:49:26.438Z,64.10
2022-11-20T18:52:16.174Z,64.63
2022-11-20T18:55:08.021Z,61.03
2022-11-20T18:57:57.494Z,62.43
2022-11-20T19:00:47.040Z,66.83
2022-11-20T19:03:36.388Z,60.80
2022-11-20T19:06:26.169Z,58.00
2022-11-20T19:09:15.646Z,58.37
2022-11-20T19:12:06.576Z,56.87
2022-11-20T19:14:56.581Z,60.60
2022-11-20T19:17:45.891Z,51.37
2022-11-20T19:20:35.171Z,57.27
2022-11-20T19:23:24.544Z,56.37
2022-11-20T19:26:13.961Z,51.30
2022-11-20T19:29:04.557Z,52.00
2022-11-20T19:31:53.647Z,50.20
2022-11-20T19:34:43.817Z,53.27
2022-11-20T19:37:34.833Z,54.60
2022-11-20T19:40:23.684Z,97.40
2022-11-20T19:43:13.118Z,143.13
2022-11-20T19:46:03.909Z,80.57
2022-11-20T19:48:54.341Z,51.53
2022-11-20T19:51:47.827Z,57.43
2022-11-20T19:54:37.129Z,50.97
2022-11-20T19:57:26.152Z,43.43
2022-11-20T20:00:23.079Z,47.93
2022-11-20T20:03:19.095Z,44.53
2022-11-20T20:06:10.104Z,43.27
2022-11-20T20:09:00.713Z,46.53
2022-11-20T20:11:49.769Z,44.67
2022-11-20T20:14:38.608Z,49.67
2022-11-20T20:17:28.411Z,43.83
2022-11-20T20:20:19.638Z,42.40
2022-11-20T20:23:08.996Z,42.13
2022-11-20T20:25:58.629Z,43.80
2022-11-20T20:28:47.701Z,43.40
2022-11-20T20:31:37.167Z,46.00
2022-11-20T20:34:29.648Z,42.03
2022-11-20T20:37:20.076Z,45.77
2022-11-20T20:40:15.205Z,49.13
2022-11-20T20:43:04.262Z,42.00
2022-11-20T20:45:53.863Z,47.53
2022-11-20T20:48:43.110Z,38.83
2022-11-20T20:51:32.458Z,38.70
2022-11-20T20:54:24.258Z,32.73
2022-11-20T20:57:13.920Z,31.43
2022-11-20T21:00:02.863Z,25.60
2022-11-20T21:02:52.093Z,24.83
2022-11-20T21:05:41.559Z,23.87
2022-11-20T21:08:30.507Z,30.53
2022-11-20T21:11:22.439Z,20.23
2022-11-20T21:14:11.568Z,19.67
2022-11-20T21:17:00.234Z,18.60
2022-11-20T21:19:49.268Z,20.10
2022-11-20T21:22:37.131Z,19.50
2022-11-20T21:25:26.535Z,20.60
2022-11-20T21:28:18.634Z,22.33
2022-11-20T21:31:09.339Z,22.17
2022-11-20T21:33:59.341Z,27.13
2022-11-20T21:36:49.280Z,27.77
2022-11-20T21:39:50.909Z,28.07
2022-11-20T21:42:40.670Z,28.10
2022-11-20T21:45:31.399Z,26.63
2022-11-20T21:48:20.410Z,27.50
2022-11-20T21:51:11.924Z,30.50
2022-11-20T21:54:00.870Z,31.80
2022-11-20T21:56:50.167Z,30.40
2022-11-20T21:59:38.738Z,27.63
2022-11-20T22:02:29.432Z,27.20
2022-11-20T22:05:19.020Z,35.00
2022-11-20T22:08:08.907Z,30.37
2022-11-20T22:10:59.494Z,83.60
2022-11-20T22:14:06.197Z,51.63
2022-11-20T22:16:55.690Z,51.80
2022-11-20T22:19:47.368Z,44.17
2022-11-20T22:22:36.405Z,37.23
2022-11-20T22:25:25.614Z,35.30
2022-11-20T22:28:14.204Z,31.03
2022-11-20T22:31:05.604Z,28.33
2022-11-20T22:33:55.455Z,26.07
2022-11-20T22:36:46.365Z,27.47
2022-11-20T22:39:35.294Z,28.73
2022-11-20T22:42:25.015Z,26.20
2022-11-20T22:45:14.637Z,30.97
2022-11-20T22:48:04.015Z,27.40
2022-11-20T22:50:53.251Z,25.17
2022-11-20T22:53:45.359Z,22.37
2022-11-20T22:56:35.314Z,21.90
2022-11-20T22:59:24.580Z,23.07
2022-11-20T23:02:13.441Z,21.10
2022-11-20T23:05:03.174Z,20.20
2022-11-20T23:07:52.614Z,24.83
2022-11-20T23:10:43.477Z,19.33
2022-11-20T23:13:32.636Z,20.43
2022-11-20T23:16:22.102Z,22.17
2022-11-20T23:19:14.283Z,20.63
2022-11-20T23:22:03.481Z,20.33
2022-11-20T23:24:53.195Z,21.80
2022-11-20T23:27:44.281Z,16.80
2022-11-20T23:30:35.388Z,19.67
2022-11-20T23:33:24.595Z,20.87
2022-11-20T23:36:14.502Z,16.10
2022-11-20T23:39:03.794Z,18.97
2022-11-20T23:41:52.789Z,18.13
2022-11-20T23:44:44.219Z,15.93
2022-11-20T23:47:33.702Z,15.23
2022-11-20T23:50:23.304Z,14.87
2022-11-20T23:53:14.535Z,15.53
2022-11-20T23:56:05.033Z,16.23
2022-11-20T23:58:54.153Z,17.30
